sensor_id;sensor_type;location;lat;lon;timestamp;P1;durP1;ratioP1;P2;durP2;ratioP2
60060;SDS011;45933;51.336;12.612;2024-03-22T00:00:56;13.97;;;9.30;;
60060;SDS011;45933;51.336;12.612;2024-03-22T00:03:21;15.33;;;9.23;;
60060;SDS011;45933;51.336;12.612;2024-03-22T00:05:47;17.83;;;8.97;;
60060;SDS011;45933;51.336;12.612;2024-03-22T00:08:12;14.03;;;9.33;;
60060;SDS011;45933;51.336;12.612;2024-03-22T00:10:38;13.10;;;9.27;;
60060;SDS011;45933;51.336;12.612;2024-03-22T00:13:03;13.77;;;9.40;;
60060;SDS011;45933;51.336;12.612;2024-03-22T00:15:28;14.97;;;9.23;;
60060;SDS011;45933;51.336;12.612;2024-03-22T00:17:54;14.13;;;9.03;;
60060;SDS011;45933;51.336;12.612;2024-03-22T00:20:19;14.87;;;9.80;;
60060;SDS011;45933;51.336;12.612;2024-03-22T00:22:44;15.40;;;9.47;;
60060;SDS011;45933;51.336;12.612;2024-03-22T00:25:10;15.17;;;9.37;;
60060;SDS011;45933;51.336;12.612;2024-03-22T00:27:35;15.37;;;9.13;;
60060;SDS011;45933;51.336;12.612;2024-03-22T00:30:00;17.30;;;10.27;;
60060;SDS011;45933;51.336;12.612;2024-03-22T00:32:26;15.90;;;10.00;;
60060;SDS011;45933;51.336;12.612;2024-03-22T00:34:51;17.83;;;10.37;;
60060;SDS011;45933;51.336;12.612;2024-03-22T00:37:17;19.87;;;10.83;;
60060;SDS011;45933;51.336;12.612;2024-03-22T00:39:42;17.03;;;10.97;;
60060;SDS011;45933;51.336;12.612;2024-03-22T00:42:07;16.63;;;10.77;;
60060;SDS011;45933;51.336;12.612;2024-03-22T00:44:32;15.23;;;10.03;;
60060;SDS011;45933;51.336;12.612;2024-03-22T00:46:57;15.67;;;10.17;;
60060;SDS011;45933;51.336;12.612;2024-03-22T00:49:23;16.23;;;9.80;;
60060;SDS011;45933;51.336;12.612;2024-03-22T00:51:48;14.53;;;9.47;;
60060;SDS011;45933;51.336;12.612;2024-03-22T00:54:14;15.37;;;9.73;;
60060;SDS011;45933;51.336;12.612;2024-03-22T00:56:39;17.23;;;10.33;;
60060;SDS011;45933;51.336;12.612;2024-03-22T00:59:04;14.60;;;9.63;;
60060;SDS011;45933;51.336;12.612;2024-03-22T01:01:30;13.53;;;9.77;;
60060;SDS011;45933;51.336;12.612;2024-03-22T01:03:55;14.83;;;9.03;;
60060;SDS011;45933;51.336;12.612;2024-03-22T01:06:20;14.63;;;9.10;;
60060;SDS011;45933;51.336;12.612;2024-03-22T01:08:50;13.03;;;8.57;;
60060;SDS011;45933;51.336;12.612;2024-03-22T01:11:16;15.17;;;9.23;;
60060;SDS011;45933;51.336;12.612;2024-03-22T01:13:42;14.10;;;9.03;;
60060;SDS011;45933;51.336;12.612;2024-03-22T01:16:07;13.90;;;9.40;;
60060;SDS011;45933;51.336;12.612;2024-03-22T01:18:33;15.90;;;9.30;;
60060;SDS011;45933;51.336;12.612;2024-03-22T01:20:58;14.67;;;9.57;;
60060;SDS011;45933;51.336;12.612;2024-03-22T01:23:24;13.97;;;9.20;;
60060;SDS011;45933;51.336;12.612;2024-03-22T01:25:49;16.67;;;10.10;;
60060;SDS011;45933;51.336;12.612;2024-03-22T01:28:14;15.83;;;9.73;;
60060;SDS011;45933;51.336;12.612;2024-03-22T01:30:40;13.90;;;9.53;;
60060;SDS011;45933;51.336;12.612;2024-03-22T01:33:05;17.03;;;10.27;;
60060;SDS011;45933;51.336;12.612;2024-03-22T01:35:30;18.97;;;10.20;;
60060;SDS011;45933;51.336;12.612;2024-03-22T01:37:56;18.60;;;11.07;;
60060;SDS011;45933;51.336;12.612;2024-03-22T01:40:21;17.87;;;10.93;;
60060;SDS011;45933;51.336;12.612;2024-03-22T01:42:46;17.63;;;10.53;;
60060;SDS011;45933;51.336;12.612;2024-03-22T01:45:12;17.97;;;10.67;;
60060;SDS011;45933;51.336;12.612;2024-03-22T01:47:39;18.63;;;10.47;;
60060;SDS011;45933;51.336;12.612;2024-03-22T01:50:05;16.57;;;10.60;;
60060;SDS011;45933;51.336;12.612;2024-03-22T01:52:32;18.20;;;10.90;;
60060;SDS011;45933;51.336;12.612;2024-03-22T01:54:57;17.30;;;11.47;;
60060;SDS011;45933;51.336;12.612;2024-03-22T01:57:23;19.73;;;12.10;;
60060;SDS011;45933;51.336;12.612;2024-03-22T01:59:48;18.43;;;12.47;;
60060;SDS011;45933;51.336;12.612;2024-03-22T02:02:15;21.80;;;13.27;;
60060;SDS011;45933;51.336;12.612;2024-03-22T02:04:40;23.70;;;14.30;;
60060;SDS011;45933;51.336;12.612;2024-03-22T02:07:06;20.57;;;13.60;;
60060;SDS011;45933;51.336;12.612;2024-03-22T02:09:31;27.27;;;14.27;;
60060;SDS011;45933;51.336;12.612;2024-03-22T02:11:56;25.93;;;15.27;;
60060;SDS011;45933;51.336;12.612;2024-03-22T02:14:22;25.67;;;15.13;;
60060;SDS011;45933;51.336;12.612;2024-03-22T02:16:47;23.87;;;15.20;;
60060;SDS011;45933;51.336;12.612;2024-03-22T02:19:12;22.87;;;14.53;;
60060;SDS011;45933;51.336;12.612;2024-03-22T02:21:38;24.43;;;15.03;;
60060;SDS011;45933;51.336;12.612;2024-03-22T02:24:03;25.83;;;15.43;;
60060;SDS011;45933;51.336;12.612;2024-03-22T02:26:28;24.13;;;14.63;;
60060;SDS011;45933;51.336;12.612;2024-03-22T02:28:54;23.63;;;14.73;;
60060;SDS011;45933;51.336;12.612;2024-03-22T02:31:19;24.10;;;15.27;;
60060;SDS011;45933;51.336;12.612;2024-03-22T02:33:45;26.70;;;15.50;;
60060;SDS011;45933;51.336;12.612;2024-03-22T02:36:10;25.33;;;15.87;;
60060;SDS011;45933;51.336;12.612;2024-03-22T02:38:36;25.63;;;14.50;;
60060;SDS011;45933;51.336;12.612;2024-03-22T02:41:01;24.57;;;14.83;;
60060;SDS011;45933;51.336;12.612;2024-03-22T02:43:26;26.60;;;16.10;;
60060;SDS011;45933;51.336;12.612;2024-03-22T02:45:51;24.97;;;14.53;;
60060;SDS011;45933;51.336;12.612;2024-03-22T02:48:17;24.37;;;14.73;;
60060;SDS011;45933;51.336;12.612;2024-03-22T02:50:42;22.50;;;14.80;;
60060;SDS011;45933;51.336;12.612;2024-03-22T02:53:07;22.60;;;14.60;;
60060;SDS011;45933;51.336;12.612;2024-03-22T02:55:39;25.20;;;14.47;;
60060;SDS011;45933;51.336;12.612;2024-03-22T02:58:06;26.30;;;14.03;;
60060;SDS011;45933;51.336;12.612;2024-03-22T03:00:38;23.00;;;13.90;;
60060;SDS011;45933;51.336;12.612;2024-03-22T03:03:04;22.73;;;13.73;;
60060;SDS011;45933;51.336;12.612;2024-03-22T03:05:30;22.27;;;13.53;;
60060;SDS011;45933;51.336;12.612;2024-03-22T03:07:55;23.00;;;13.53;;
60060;SDS011;45933;51.336;12.612;2024-03-22T03:10:20;23.30;;;14.07;;
60060;SDS011;45933;51.336;12.612;2024-03-22T03:12:46;23.73;;;13.93;;
60060;SDS011;45933;51.336;12.612;2024-03-22T03:15:11;21.27;;;13.70;;
60060;SDS011;45933;51.336;12.612;2024-03-22T03:17:36;20.87;;;13.00;;
60060;SDS011;45933;51.336;12.612;2024-03-22T03:20:02;20.33;;;13.03;;
60060;SDS011;45933;51.336;12.612;2024-03-22T03:22:32;21.93;;;13.83;;
60060;SDS011;45933;51.336;12.612;2024-03-22T03:24:57;20.17;;;12.33;;
60060;SDS011;45933;51.336;12.612;2024-03-22T03:27:23;20.17;;;13.60;;
60060;SDS011;45933;51.336;12.612;2024-03-22T03:29:48;20.80;;;12.70;;
60060;SDS011;45933;51.336;12.612;2024-03-22T03:32:13;19.20;;;13.13;;
60060;SDS011;45933;51.336;12.612;2024-03-22T03:34:38;20.80;;;12.73;;
60060;SDS011;45933;51.336;12.612;2024-03-22T03:37:04;21.03;;;13.33;;
60060;SDS011;45933;51.336;12.612;2024-03-22T03:39:29;19.10;;;11.80;;
60060;SDS011;45933;51.336;12.612;2024-03-22T03:41:54;20.00;;;12.97;;
60060;SDS011;45933;51.336;12.612;2024-03-22T03:44:20;21.83;;;12.97;;
60060;SDS011;45933;51.336;12.612;2024-03-22T03:46:45;21.63;;;13.30;;
60060;SDS011;45933;51.336;12.612;2024-03-22T03:49:10;20.53;;;12.70;;
60060;SDS011;45933;51.336;12.612;2024-03-22T03:51:36;19.37;;;12.33;;
60060;SDS011;45933;51.336;12.612;2024-03-22T03:54:01;19.83;;;12.63;;
60060;SDS011;45933;51.336;12.612;2024-03-22T03:56:26;17.80;;;11.83;;
60060;SDS011;45933;51.336;12.612;2024-03-22T03:58:52;18.13;;;12.17;;
60060;SDS011;45933;51.336;12.612;2024-03-22T04:01:18;23.13;;;12.13;;
60060;SDS011;45933;51.336;12.612;2024-03-22T04:03:43;22.57;;;12.53;;
60060;SDS011;45933;51.336;12.612;2024-03-22T04:06:09;21.63;;;12.60;;
60060;SDS011;45933;51.336;12.612;2024-03-22T04:08:34;21.80;;;13.00;;
60060;SDS011;45933;51.336;12.612;2024-03-22T04:10:59;21.73;;;12.00;;
60060;SDS011;45933;51.336;12.612;2024-03-22T04:13:25;19.13;;;11.23;;
60060;SDS011;45933;51.336;12.612;2024-03-22T04:15:51;19.73;;;11.93;;
60060;SDS011;45933;51.336;12.612;2024-03-22T04:18:17;18.40;;;11.27;;
60060;SDS011;45933;51.336;12.612;2024-03-22T04:20:42;19.83;;;11.40;;
60060;SDS011;45933;51.336;12.612;2024-03-22T04:23:08;16.60;;;10.70;;
60060;SDS011;45933;51.336;12.612;2024-03-22T04:25:34;20.83;;;10.77;;
60060;SDS011;45933;51.336;12.612;2024-03-22T04:27:59;19.07;;;10.93;;
60060;SDS011;45933;51.336;12.612;2024-03-22T04:30:25;17.80;;;10.30;;
60060;SDS011;45933;51.336;12.612;2024-03-22T04:32:50;16.70;;;9.83;;
60060;SDS011;45933;51.336;12.612;2024-03-22T04:35:16;16.40;;;10.00;;
60060;SDS011;45933;51.336;12.612;2024-03-22T04:37:41;16.43;;;9.80;;
60060;SDS011;45933;51.336;12.612;2024-03-22T04:40:06;14.33;;;8.97;;
60060;SDS011;45933;51.336;12.612;2024-03-22T04:42:33;17.13;;;9.33;;
60060;SDS011;45933;51.336;12.612;2024-03-22T04:44:58;16.10;;;10.17;;
60060;SDS011;45933;51.336;12.612;2024-03-22T04:47:24;13.90;;;8.87;;
60060;SDS011;45933;51.336;12.612;2024-03-22T04:49:49;14.83;;;9.13;;
60060;SDS011;45933;51.336;12.612;2024-03-22T04:52:14;15.13;;;9.10;;
60060;SDS011;45933;51.336;12.612;2024-03-22T04:54:40;14.00;;;7.73;;
60060;SDS011;45933;51.336;12.612;2024-03-22T04:57:05;11.10;;;8.03;;
60060;SDS011;45933;51.336;12.612;2024-03-22T04:59:30;11.00;;;7.50;;
60060;SDS011;45933;51.336;12.612;2024-03-22T05:01:56;12.40;;;7.40;;
60060;SDS011;45933;51.336;12.612;2024-03-22T05:04:21;9.30;;;6.77;;
60060;SDS011;45933;51.336;12.612;2024-03-22T05:06:46;14.63;;;8.17;;
60060;SDS011;45933;51.336;12.612;2024-03-22T05:09:11;13.07;;;7.43;;
60060;SDS011;45933;51.336;12.612;2024-03-22T05:11:37;11.63;;;7.73;;
60060;SDS011;45933;51.336;12.612;2024-03-22T05:14:02;13.40;;;7.97;;
60060;SDS011;45933;51.336;12.612;2024-03-22T05:16:28;10.80;;;7.17;;
60060;SDS011;45933;51.336;12.612;2024-03-22T05:18:53;13.27;;;7.57;;
60060;SDS011;45933;51.336;12.612;2024-03-22T05:21:18;12.47;;;7.23;;
60060;SDS011;45933;51.336;12.612;2024-03-22T05:23:44;9.60;;;6.63;;
60060;SDS011;45933;51.336;12.612;2024-03-22T05:26:09;10.93;;;6.80;;
60060;SDS011;45933;51.336;12.612;2024-03-22T05:28:35;11.33;;;6.73;;
60060;SDS011;45933;51.336;12.612;2024-03-22T05:31:00;10.77;;;6.40;;
60060;SDS011;45933;51.336;12.612;2024-03-22T05:33:25;11.43;;;6.97;;
60060;SDS011;45933;51.336;12.612;2024-03-22T05:35:50;9.93;;;6.57;;
60060;SDS011;45933;51.336;12.612;2024-03-22T05:38:16;12.37;;;6.43;;
60060;SDS011;45933;51.336;12.612;2024-03-22T05:40:41;10.03;;;6.47;;
60060;SDS011;45933;51.336;12.612;2024-03-22T05:43:06;9.93;;;6.07;;
60060;SDS011;45933;51.336;12.612;2024-03-22T05:45:31;11.93;;;6.33;;
60060;SDS011;45933;51.336;12.612;2024-03-22T05:47:57;7.27;;;5.63;;
60060;SDS011;45933;51.336;12.612;2024-03-22T05:50:22;12.57;;;6.37;;
60060;SDS011;45933;51.336;12.612;2024-03-22T05:52:47;10.70;;;6.63;;
60060;SDS011;45933;51.336;12.612;2024-03-22T05:55:13;9.83;;;6.10;;
60060;SDS011;45933;51.336;12.612;2024-03-22T05:57:38;9.77;;;6.20;;
60060;SDS011;45933;51.336;12.612;2024-03-22T06:00:04;8.87;;;6.07;;
60060;SDS011;45933;51.336;12.612;2024-03-22T06:02:31;11.70;;;6.43;;
60060;SDS011;45933;51.336;12.612;2024-03-22T06:04:57;8.83;;;6.20;;
60060;SDS011;45933;51.336;12.612;2024-03-22T06:07:23;9.13;;;5.43;;
60060;SDS011;45933;51.336;12.612;2024-03-22T06:09:48;9.13;;;5.57;;
60060;SDS011;45933;51.336;12.612;2024-03-22T06:12:14;8.77;;;5.43;;
60060;SDS011;45933;51.336;12.612;2024-03-22T06:14:41;8.97;;;5.83;;
60060;SDS011;45933;51.336;12.612;2024-03-22T06:17:07;9.63;;;6.03;;
60060;SDS011;45933;51.336;12.612;2024-03-22T06:19:32;8.73;;;5.57;;
60060;SDS011;45933;51.336;12.612;2024-03-22T06:21:58;11.47;;;5.83;;
60060;SDS011;45933;51.336;12.612;2024-03-22T06:24:23;8.20;;;5.40;;
60060;SDS011;45933;51.336;12.612;2024-03-22T06:26:48;8.83;;;5.50;;
60060;SDS011;45933;51.336;12.612;2024-03-22T06:29:14;10.73;;;6.30;;
60060;SDS011;45933;51.336;12.612;2024-03-22T06:31:41;12.60;;;6.17;;
60060;SDS011;45933;51.336;12.612;2024-03-22T06:34:06;12.30;;;6.03;;
60060;SDS011;45933;51.336;12.612;2024-03-22T06:36:32;9.80;;;6.27;;
60060;SDS011;45933;51.336;12.612;2024-03-22T06:38:57;14.03;;;6.47;;
60060;SDS011;45933;51.336;12.612;2024-03-22T06:41:24;10.40;;;6.07;;
60060;SDS011;45933;51.336;12.612;2024-03-22T06:43:49;8.17;;;6.30;;
60060;SDS011;45933;51.336;12.612;2024-03-22T06:46:14;11.27;;;6.57;;
60060;SDS011;45933;51.336;12.612;2024-03-22T06:48:40;10.43;;;6.63;;
60060;SDS011;45933;51.336;12.612;2024-03-22T06:51:05;9.67;;;6.63;;
60060;SDS011;45933;51.336;12.612;2024-03-22T06:53:30;10.00;;;6.27;;
60060;SDS011;45933;51.336;12.612;2024-03-22T06:55:56;9.27;;;6.40;;
60060;SDS011;45933;51.336;12.612;2024-03-22T06:58:21;9.43;;;6.70;;
60060;SDS011;45933;51.336;12.612;2024-03-22T07:00:46;9.80;;;6.13;;
60060;SDS011;45933;51.336;12.612;2024-03-22T07:03:12;13.80;;;7.10;;
60060;SDS011;45933;51.336;12.612;2024-03-22T07:05:37;10.60;;;6.63;;
60060;SDS011;45933;51.336;12.612;2024-03-22T07:08:02;12.63;;;7.00;;
60060;SDS011;45933;51.336;12.612;2024-03-22T07:10:27;9.83;;;7.10;;
60060;SDS011;45933;51.336;12.612;2024-03-22T07:12:54;12.93;;;7.50;;
60060;SDS011;45933;51.336;12.612;2024-03-22T07:15:24;14.23;;;8.20;;
60060;SDS011;45933;51.336;12.612;2024-03-22T07:17:50;11.00;;;7.80;;
60060;SDS011;45933;51.336;12.612;2024-03-22T07:20:16;13.60;;;8.80;;
60060;SDS011;45933;51.336;12.612;2024-03-22T07:22:42;11.33;;;7.40;;
60060;SDS011;45933;51.336;12.612;2024-03-22T07:25:07;11.43;;;7.73;;
60060;SDS011;45933;51.336;12.612;2024-03-22T07:27:36;13.60;;;8.40;;
60060;SDS011;45933;51.336;12.612;2024-03-22T07:30:01;13.20;;;7.80;;
60060;SDS011;45933;51.336;12.612;2024-03-22T07:32:27;14.53;;;7.63;;
60060;SDS011;45933;51.336;12.612;2024-03-22T07:34:52;11.93;;;8.37;;
60060;SDS011;45933;51.336;12.612;2024-03-22T07:37:18;13.33;;;8.30;;
60060;SDS011;45933;51.336;12.612;2024-03-22T07:39:43;12.93;;;8.37;;
60060;SDS011;45933;51.336;12.612;2024-03-22T07:42:09;15.67;;;9.30;;
60060;SDS011;45933;51.336;12.612;2024-03-22T07:44:34;12.83;;;8.87;;
60060;SDS011;45933;51.336;12.612;2024-03-22T07:46:59;16.53;;;9.03;;
60060;SDS011;45933;51.336;12.612;2024-03-22T07:49:24;13.50;;;8.73;;
60060;SDS011;45933;51.336;12.612;2024-03-22T07:51:50;12.48;;;8.57;;
60060;SDS011;45933;51.336;12.612;2024-03-22T07:54:15;14.07;;;9.07;;
60060;SDS011;45933;51.336;12.612;2024-03-22T07:56:41;15.57;;;9.70;;
60060;SDS011;45933;51.336;12.612;2024-03-22T07:59:06;13.37;;;8.83;;
60060;SDS011;45933;51.336;12.612;2024-03-22T08:01:31;17.63;;;10.13;;
60060;SDS011;45933;51.336;12.612;2024-03-22T08:03:56;13.83;;;9.97;;
60060;SDS011;45933;51.336;12.612;2024-03-22T08:06:22;15.80;;;9.10;;
60060;SDS011;45933;51.336;12.612;2024-03-22T08:08:47;15.65;;;8.98;;
60060;SDS011;45933;51.336;12.612;2024-03-22T08:11:12;13.30;;;9.37;;
60060;SDS011;45933;51.336;12.612;2024-03-22T08:13:38;14.53;;;9.20;;
60060;SDS011;45933;51.336;12.612;2024-03-22T08:16:03;14.88;;;10.23;;
60060;SDS011;45933;51.336;12.612;2024-03-22T08:18:29;15.33;;;9.70;;
60060;SDS011;45933;51.336;12.612;2024-03-22T08:20:56;16.37;;;10.37;;
60060;SDS011;45933;51.336;12.612;2024-03-22T08:23:22;16.50;;;10.43;;
60060;SDS011;45933;51.336;12.612;2024-03-22T08:25:47;15.90;;;10.30;;
60060;SDS011;45933;51.336;12.612;2024-03-22T08:28:13;16.97;;;10.20;;
60060;SDS011;45933;51.336;12.612;2024-03-22T08:30:38;15.98;;;10.23;;
60060;SDS011;45933;51.336;12.612;2024-03-22T08:33:04;18.05;;;10.43;;
60060;SDS011;45933;51.336;12.612;2024-03-22T08:35:29;17.85;;;10.20;;
60060;SDS011;45933;51.336;12.612;2024-03-22T08:37:55;18.48;;;10.70;;
60060;SDS011;45933;51.336;12.612;2024-03-22T08:40:21;18.98;;;10.13;;
60060;SDS011;45933;51.336;12.612;2024-03-22T08:42:46;17.15;;;10.77;;
60060;SDS011;45933;51.336;12.612;2024-03-22T08:45:11;16.92;;;10.30;;
60060;SDS011;45933;51.336;12.612;2024-03-22T08:47:37;15.65;;;10.35;;
60060;SDS011;45933;51.336;12.612;2024-03-22T08:50:02;19.00;;;9.85;;
60060;SDS011;45933;51.336;12.612;2024-03-22T08:52:28;17.73;;;10.48;;
60060;SDS011;45933;51.336;12.612;2024-03-22T08:54:53;17.17;;;11.25;;
60060;SDS011;45933;51.336;12.612;2024-03-22T08:57:19;20.95;;;11.43;;
60060;SDS011;45933;51.336;12.612;2024-03-22T08:59:45;17.52;;;11.40;;
60060;SDS011;45933;51.336;12.612;2024-03-22T09:02:10;18.90;;;10.65;;
60060;SDS011;45933;51.336;12.612;2024-03-22T09:04:36;16.95;;;11.00;;
60060;SDS011;45933;51.336;12.612;2024-03-22T09:07:01;18.10;;;11.48;;
60060;SDS011;45933;51.336;12.612;2024-03-22T09:09:27;18.13;;;11.55;;
60060;SDS011;45933;51.336;12.612;2024-03-22T09:11:52;15.55;;;10.30;;
60060;SDS011;45933;51.336;12.612;2024-03-22T09:14:17;14.60;;;10.68;;
60060;SDS011;45933;51.336;12.612;2024-03-22T09:16:43;17.25;;;11.25;;
60060;SDS011;45933;51.336;12.612;2024-03-22T09:19:08;19.17;;;11.50;;
60060;SDS011;45933;51.336;12.612;2024-03-22T09:21:33;17.52;;;11.40;;
60060;SDS011;45933;51.336;12.612;2024-03-22T09:23:58;15.93;;;11.05;;
60060;SDS011;45933;51.336;12.612;2024-03-22T09:26:24;16.77;;;11.40;;
60060;SDS011;45933;51.336;12.612;2024-03-22T09:28:49;19.67;;;11.02;;
60060;SDS011;45933;51.336;12.612;2024-03-22T09:31:17;15.38;;;10.85;;
60060;SDS011;45933;51.336;12.612;2024-03-22T09:33:42;17.33;;;11.05;;
60060;SDS011;45933;51.336;12.612;2024-03-22T09:36:08;15.38;;;10.38;;
60060;SDS011;45933;51.336;12.612;2024-03-22T09:38:34;15.63;;;10.70;;
60060;SDS011;45933;51.336;12.612;2024-03-22T09:40:59;19.65;;;11.43;;
60060;SDS011;45933;51.336;12.612;2024-03-22T09:43:26;15.77;;;10.20;;
60060;SDS011;45933;51.336;12.612;2024-03-22T09:45:52;17.45;;;10.68;;
60060;SDS011;45933;51.336;12.612;2024-03-22T09:48:19;15.55;;;10.32;;
60060;SDS011;45933;51.336;12.612;2024-03-22T09:50:45;18.48;;;11.20;;
60060;SDS011;45933;51.336;12.612;2024-03-22T09:53:13;14.27;;;10.13;;
60060;SDS011;45933;51.336;12.612;2024-03-22T09:55:38;18.17;;;10.43;;
60060;SDS011;45933;51.336;12.612;2024-03-22T09:58:08;14.55;;;9.90;;
60060;SDS011;45933;51.336;12.612;2024-03-22T10:00:34;17.25;;;10.48;;
60060;SDS011;45933;51.336;12.612;2024-03-22T10:02:59;15.48;;;10.48;;
60060;SDS011;45933;51.336;12.612;2024-03-22T10:05:25;14.25;;;10.45;;
60060;SDS011;45933;51.336;12.612;2024-03-22T10:07:51;16.73;;;10.73;;
60060;SDS011;45933;51.336;12.612;2024-03-22T10:10:16;17.48;;;9.38;;
60060;SDS011;45933;51.336;12.612;2024-03-22T10:12:41;14.10;;;9.05;;
60060;SDS011;45933;51.336;12.612;2024-03-22T10:15:07;13.68;;;8.90;;
60060;SDS011;45933;51.336;12.612;2024-03-22T10:17:38;14.52;;;9.65;;
60060;SDS011;45933;51.336;12.612;2024-03-22T10:20:04;14.80;;;9.10;;
60060;SDS011;45933;51.336;12.612;2024-03-22T10:22:34;14.27;;;8.73;;
60060;SDS011;45933;51.336;12.612;2024-03-22T10:24:59;14.60;;;8.85;;
60060;SDS011;45933;51.336;12.612;2024-03-22T10:27:26;15.88;;;8.95;;
60060;SDS011;45933;51.336;12.612;2024-03-22T10:29:52;12.60;;;8.35;;
60060;SDS011;45933;51.336;12.612;2024-03-22T10:32:17;14.45;;;9.27;;
60060;SDS011;45933;51.336;12.612;2024-03-22T10:34:43;14.93;;;8.70;;
60060;SDS011;45933;51.336;12.612;2024-03-22T10:37:10;14.13;;;8.57;;
60060;SDS011;45933;51.336;12.612;2024-03-22T10:39:40;12.98;;;8.40;;
60060;SDS011;45933;51.336;12.612;2024-03-22T10:42:07;11.80;;;8.02;;
60060;SDS011;45933;51.336;12.612;2024-03-22T10:44:32;14.52;;;8.45;;
60060;SDS011;45933;51.336;12.612;2024-03-22T10:46:57;12.40;;;7.85;;
60060;SDS011;45933;51.336;12.612;2024-03-22T10:49:26;12.57;;;7.57;;
60060;SDS011;45933;51.336;12.612;2024-03-22T10:51:56;14.32;;;7.93;;
60060;SDS011;45933;51.336;12.612;2024-03-22T10:54:26;12.82;;;8.50;;
60060;SDS011;45933;51.336;12.612;2024-03-22T10:56:57;12.50;;;8.20;;
60060;SDS011;45933;51.336;12.612;2024-03-22T10:59:23;16.98;;;8.23;;
60060;SDS011;45933;51.336;12.612;2024-03-22T11:01:48;12.25;;;7.38;;
60060;SDS011;45933;51.336;12.612;2024-03-22T11:04:17;12.15;;;7.85;;
60060;SDS011;45933;51.336;12.612;2024-03-22T11:06:48;14.82;;;8.48;;
60060;SDS011;45933;51.336;12.612;2024-03-22T11:09:23;11.93;;;8.35;;
60060;SDS011;45933;51.336;12.612;2024-03-22T11:11:51;12.07;;;7.97;;
60060;SDS011;45933;51.336;12.612;2024-03-22T11:14:17;13.43;;;8.40;;
60060;SDS011;45933;51.336;12.612;2024-03-22T11:16:45;11.18;;;7.88;;
60060;SDS011;45933;51.336;12.612;2024-03-22T11:19:11;12.18;;;7.85;;
60060;SDS011;45933;51.336;12.612;2024-03-22T11:21:37;13.93;;;8.20;;
60060;SDS011;45933;51.336;12.612;2024-03-22T11:24:03;11.02;;;7.53;;
60060;SDS011;45933;51.336;12.612;2024-03-22T11:26:29;13.95;;;8.20;;
60060;SDS011;45933;51.336;12.612;2024-03-22T11:28:54;11.60;;;8.10;;
60060;SDS011;45933;51.336;12.612;2024-03-22T11:31:19;11.90;;;8.13;;
60060;SDS011;45933;51.336;12.612;2024-03-22T11:33:50;13.65;;;8.80;;
60060;SDS011;45933;51.336;12.612;2024-03-22T11:36:16;14.00;;;9.10;;
60060;SDS011;45933;51.336;12.612;2024-03-22T11:38:42;13.60;;;8.27;;
60060;SDS011;45933;51.336;12.612;2024-03-22T11:41:07;11.48;;;8.25;;
60060;SDS011;45933;51.336;12.612;2024-03-22T11:43:33;12.43;;;8.10;;
60060;SDS011;45933;51.336;12.612;2024-03-22T11:45:58;12.13;;;8.75;;
60060;SDS011;45933;51.336;12.612;2024-03-22T11:48:26;14.27;;;9.38;;
60060;SDS011;45933;51.336;12.612;2024-03-22T11:50:51;14.77;;;8.90;;
60060;SDS011;45933;51.336;12.612;2024-03-22T11:53:17;13.55;;;8.57;;
60060;SDS011;45933;51.336;12.612;2024-03-22T11:55:42;13.27;;;9.10;;
60060;SDS011;45933;51.336;12.612;2024-03-22T11:58:10;11.85;;;8.65;;
60060;SDS011;45933;51.336;12.612;2024-03-22T12:00:36;16.35;;;9.63;;
60060;SDS011;45933;51.336;12.612;2024-03-22T12:03:03;12.75;;;8.90;;
60060;SDS011;45933;51.336;12.612;2024-03-22T12:05:30;13.85;;;9.50;;
60060;SDS011;45933;51.336;12.612;2024-03-22T12:07:56;15.25;;;10.50;;
60060;SDS011;45933;51.336;12.612;2024-03-22T12:10:21;13.88;;;9.18;;
60060;SDS011;45933;51.336;12.612;2024-03-22T12:12:46;15.35;;;9.70;;
60060;SDS011;45933;51.336;12.612;2024-03-22T12:15:11;13.85;;;10.20;;
60060;SDS011;45933;51.336;12.612;2024-03-22T12:17:37;18.40;;;11.07;;
60060;SDS011;45933;51.336;12.612;2024-03-22T12:20:04;12.65;;;9.65;;
60060;SDS011;45933;51.336;12.612;2024-03-22T12:22:31;17.08;;;10.52;;
60060;SDS011;45933;51.336;12.612;2024-03-22T12:24:56;15.88;;;11.23;;
60060;SDS011;45933;51.336;12.612;2024-03-22T12:27:22;15.32;;;10.50;;
60060;SDS011;45933;51.336;12.612;2024-03-22T12:29:47;15.60;;;10.82;;
60060;SDS011;45933;51.336;12.612;2024-03-22T12:32:12;14.02;;;10.45;;
60060;SDS011;45933;51.336;12.612;2024-03-22T12:34:38;14.27;;;10.35;;
60060;SDS011;45933;51.336;12.612;2024-03-22T12:37:03;17.15;;;11.10;;
60060;SDS011;45933;51.336;12.612;2024-03-22T12:39:28;13.45;;;11.05;;
60060;SDS011;45933;51.336;12.612;2024-03-22T12:41:54;18.48;;;11.23;;
60060;SDS011;45933;51.336;12.612;2024-03-22T12:44:19;13.65;;;10.85;;
60060;SDS011;45933;51.336;12.612;2024-03-22T12:46:45;16.77;;;9.88;;
60060;SDS011;45933;51.336;12.612;2024-03-22T12:49:11;13.68;;;10.43;;
60060;SDS011;45933;51.336;12.612;2024-03-22T12:51:37;18.38;;;11.27;;
60060;SDS011;45933;51.336;12.612;2024-03-22T12:54:02;17.15;;;11.23;;
60060;SDS011;45933;51.336;12.612;2024-03-22T12:56:28;15.45;;;10.57;;
60060;SDS011;45933;51.336;12.612;2024-03-22T12:58:53;15.80;;;11.18;;
60060;SDS011;45933;51.336;12.612;2024-03-22T13:01:19;17.73;;;12.68;;
60060;SDS011;45933;51.336;12.612;2024-03-22T13:03:44;18.00;;;11.57;;
60060;SDS011;45933;51.336;12.612;2024-03-22T13:06:10;15.27;;;11.52;;
60060;SDS011;45933;51.336;12.612;2024-03-22T13:08:35;15.77;;;11.45;;
60060;SDS011;45933;51.336;12.612;2024-03-22T13:11:00;15.45;;;11.55;;
60060;SDS011;45933;51.336;12.612;2024-03-22T13:13:26;15.90;;;11.60;;
60060;SDS011;45933;51.336;12.612;2024-03-22T13:15:51;17.33;;;12.15;;
60060;SDS011;45933;51.336;12.612;2024-03-22T13:18:17;20.00;;;13.45;;
60060;SDS011;45933;51.336;12.612;2024-03-22T13:20:42;18.83;;;13.68;;
60060;SDS011;45933;51.336;12.612;2024-03-22T13:23:08;18.17;;;12.98;;
60060;SDS011;45933;51.336;12.612;2024-03-22T13:25:36;23.35;;;15.10;;
60060;SDS011;45933;51.336;12.612;2024-03-22T13:28:02;22.33;;;15.75;;
60060;SDS011;45933;51.336;12.612;2024-03-22T13:30:29;24.25;;;16.40;;
60060;SDS011;45933;51.336;12.612;2024-03-22T13:32:54;21.27;;;15.57;;
60060;SDS011;45933;51.336;12.612;2024-03-22T13:35:19;23.73;;;15.57;;
60060;SDS011;45933;51.336;12.612;2024-03-22T13:37:45;22.42;;;15.85;;
60060;SDS011;45933;51.336;12.612;2024-03-22T13:40:10;22.92;;;15.48;;
60060;SDS011;45933;51.336;12.612;2024-03-22T13:42:36;24.38;;;15.88;;
60060;SDS011;45933;51.336;12.612;2024-03-22T13:45:01;21.25;;;15.15;;
60060;SDS011;45933;51.336;12.612;2024-03-22T13:47:26;21.80;;;15.65;;
60060;SDS011;45933;51.336;12.612;2024-03-22T13:49:55;20.88;;;15.45;;
60060;SDS011;45933;51.336;12.612;2024-03-22T13:52:20;22.40;;;16.20;;
60060;SDS011;45933;51.336;12.612;2024-03-22T13:54:46;22.27;;;15.77;;
60060;SDS011;45933;51.336;12.612;2024-03-22T13:57:11;22.02;;;14.48;;
60060;SDS011;45933;51.336;12.612;2024-03-22T13:59:37;19.65;;;14.13;;
60060;SDS011;45933;51.336;12.612;2024-03-22T14:02:02;18.73;;;14.00;;
60060;SDS011;45933;51.336;12.612;2024-03-22T14:04:28;20.02;;;13.25;;
60060;SDS011;45933;51.336;12.612;2024-03-22T14:06:54;21.45;;;13.75;;